createdAt,value
2023-02-12T00:01:11.949Z,4.05
2023-02-12T00:06:15.891Z,4.05
2023-02-12T00:11:19.743Z,4.04
2023-02-12T00:16:25.475Z,4.05
2023-02-12T00:21:27.640Z,4.08
2023-02-12T00:26:29.494Z,4.10
2023-02-12T00:31:32.482Z,4.11
2023-02-12T00:36:34.613Z,4.14
2023-02-12T00:41:36.322Z,4.16
2023-02-12T00:46:38.275Z,4.13
2023-02-12T00:51:40.458Z,4.12
2023-02-12T00:56:44.118Z,4.12
2023-02-12T01:01:46.178Z,4.14
2023-02-12T01:06:48.208Z,4.15
2023-02-12T01:11:52.134Z,4.13
2023-02-12T01:16:53.849Z,4.17
2023-02-12T01:21:55.605Z,4.16
2023-02-12T01:26:57.344Z,4.11
2023-02-12T01:31:59.190Z,4.10
2023-02-12T01:37:01.799Z,4.08
2023-02-12T01:42:05.164Z,4.07
2023-02-12T01:47:06.891Z,4.07
2023-02-12T01:52:13.177Z,4.05
2023-02-12T01:57:16.611Z,4.08
2023-02-12T02:02:18.701Z,4.05
2023-02-12T02:07:20.558Z,4.05
2023-02-12T02:12:41.422Z,4.04
2023-02-12T02:18:02.139Z,4.01
2023-02-12T02:23:21.017Z,4.02
2023-02-12T02:28:25.672Z,4.03
2023-02-12T02:33:39.599Z,4.08
2023-02-12T02:38:57.306Z,4.05
2023-02-12T02:44:02.440Z,4.08
2023-02-12T02:49:10.727Z,4.13
2023-02-12T02:54:42.466Z,4.13
2023-02-12T02:59:50.345Z,4.06
2023-02-12T03:05:03.232Z,4.03
2023-02-12T03:10:13.832Z,4.02
2023-02-12T03:15:24.338Z,4.03
2023-02-12T03:20:33.581Z,4.03
2023-02-12T03:25:40.512Z,4.04
2023-02-12T03:30:58.327Z,4.11
2023-02-12T03:36:07.274Z,4.17
2023-02-12T03:41:18.981Z,4.15
2023-02-12T03:46:47.175Z,4.20
2023-02-12T03:51:51.890Z,4.24
2023-02-12T03:57:04.072Z,4.19
2023-02-12T04:02:06.976Z,4.20
2023-02-12T04:07:08.920Z,4.19
2023-02-12T04:12:25.708Z,4.11
2023-02-12T04:17:44.366Z,4.10
2023-02-12T04:22:54.070Z,4.10
2023-02-12T04:28:13.709Z,4.14
2023-02-12T04:33:20.957Z,4.16
2023-02-12T04:38:24.618Z,4.10
2023-02-12T04:43:28.685Z,3.97
2023-02-12T04:48:30.388Z,3.99
2023-02-12T04:53:32.103Z,3.99
2023-02-12T04:58:33.821Z,3.96
2023-02-12T05:03:36.136Z,3.94
2023-02-12T05:08:37.772Z,3.93
2023-02-12T05:13:39.964Z,3.91
2023-02-12T05:18:41.651Z,3.87
2023-02-12T05:23:43.417Z,3.85
2023-02-12T05:28:45.586Z,3.85
2023-02-12T05:33:48.653Z,3.81
2023-02-12T05:38:51.801Z,3.78
2023-02-12T05:43:53.955Z,3.76
2023-02-12T05:48:55.645Z,3.76
2023-02-12T05:54:00.334Z,3.77
2023-02-12T05:59:08.156Z,3.82
2023-02-12T06:04:19.228Z,3.81
2023-02-12T06:09:21.442Z,3.78
2023-02-12T06:14:23.426Z,3.78
2023-02-12T06:19:25.176Z,3.76
2023-02-12T06:24:28.822Z,3.76
2023-02-12T06:29:30.807Z,3.74
2023-02-12T06:34:32.435Z,3.72
2023-02-12T06:39:34.025Z,3.76
2023-02-12T06:44:35.750Z,3.81
2023-02-12T06:49:37.386Z,3.88
2023-02-12T06:54:39.111Z,3.96
2023-02-12T06:59:40.829Z,4.04
2023-02-12T07:04:42.693Z,4.03
2023-02-12T07:09:44.375Z,4.08
2023-02-12T07:14:46.072Z,4.16
2023-02-12T07:19:47.765Z,4.22
2023-02-12T07:24:49.633Z,4.29
2023-02-12T07:29:53.110Z,4.33
2023-02-12T07:34:54.720Z,4.36
2023-02-12T07:39:56.747Z,4.35
2023-02-12T07:44:58.448Z,4.32
2023-02-12T07:50:04.409Z,4.31
2023-02-12T07:55:06.571Z,4.25
2023-02-12T08:00:11.323Z,4.11
2023-02-12T08:05:17.954Z,3.93
2023-02-12T08:10:23.820Z,3.73
2023-02-12T08:15:26.687Z,3.61
2023-02-12T08:20:36.402Z,3.11
2023-02-12T08:25:40.794Z,3.91
2023-02-12T08:30:45.492Z,3.98
2023-02-12T08:36:21.310Z,4.01
2023-02-12T08:41:38.791Z,4.17
2023-02-12T08:46:48.158Z,4.38
2023-02-12T08:51:53.995Z,4.44
2023-02-12T08:57:00.436Z,4.46
2023-02-12T09:02:04.810Z,4.46
2023-02-12T09:07:11.729Z,4.35
2023-02-12T09:12:23.679Z,4.40
2023-02-12T09:17:27.404Z,4.48
2023-02-12T09:22:29.000Z,4.65
2023-02-12T09:27:31.438Z,4.73
2023-02-12T09:32:33.120Z,4.81
2023-02-12T09:37:34.791Z,4.85
2023-02-12T09:43:01.898Z,4.87
2023-02-12T09:48:28.218Z,4.87
2023-02-12T09:53:31.380Z,4.77
2023-02-12T09:58:38.411Z,4.73
2023-02-12T10:03:40.500Z,4.72
2023-02-12T10:09:09.683Z,4.71
2023-02-12T10:14:20.482Z,4.69
2023-02-12T10:19:50.069Z,4.81
2023-02-12T10:25:17.957Z,5.13
2023-02-12T10:30:42.744Z,5.45
2023-02-12T10:35:50.794Z,5.61
2023-02-12T10:40:54.805Z,5.69
2023-02-12T10:45:57.215Z,5.67
2023-02-12T10:51:08.244Z,5.54
2023-02-12T10:56:12.819Z,5.46
2023-02-12T11:01:30.500Z,5.59
2023-02-12T11:06:32.432Z,5.67
2023-02-12T11:11:38.749Z,5.83
2023-02-12T11:16:55.267Z,6.12
2023-02-12T11:22:18.577Z,6.13
2023-02-12T11:27:24.187Z,6.07
2023-02-12T11:32:27.292Z,6.07
2023-02-12T11:37:29.057Z,6.07
2023-02-12T11:42:35.282Z,6.30
2023-02-12T11:47:40.769Z,6.38
2023-02-12T11:52:42.839Z,6.30
2023-02-12T11:57:51.046Z,6.31
2023-02-12T12:02:55.472Z,6.24
2023-02-12T12:08:03.813Z,6.44
2023-02-12T12:13:14.700Z,6.76
2023-02-12T12:18:47.817Z,6.71
2023-02-12T12:23:59.850Z,6.80
2023-02-12T12:29:10.720Z,6.52
2023-02-12T12:34:24.478Z,6.55
2023-02-12T12:39:48.804Z,6.79
2023-02-12T12:45:05.202Z,6.69
2023-02-12T12:50:14.745Z,6.65
2023-02-12T12:55:35.912Z,6.77
2023-02-12T13:00:56.449Z,6.67
2023-02-12T13:06:16.976Z,6.64
2023-02-12T13:11:46.290Z,6.62
2023-02-12T13:17:10.567Z,6.45
2023-02-12T13:22:30.841Z,6.12
2023-02-12T13:27:40.443Z,5.97
2023-02-12T13:32:46.583Z,6.09
2023-02-12T13:37:59.050Z,6.01
2023-02-12T13:43:55.584Z,6.00
2023-02-12T13:49:12.404Z,6.03
2023-02-12T13:54:35.528Z,5.98
2023-02-12T13:59:37.230Z,5.87
2023-02-12T14:04:59.804Z,5.87
2023-02-12T14:10:05.188Z,5.83
2023-02-12T14:15:11.248Z,5.83
2023-02-12T14:20:28.415Z,5.94
2023-02-12T14:25:43.582Z,6.00
2023-02-12T14:30:45.591Z,6.00
2023-02-12T14:36:09.108Z,5.97
2023-02-12T14:41:38.631Z,5.65
2023-02-12T14:46:46.697Z,5.72
2023-02-12T14:52:06.955Z,5.68
2023-02-12T14:57:22.650Z,5.61
2023-02-12T15:02:27.957Z,5.53
2023-02-12T15:07:36.942Z,5.36
2023-02-12T15:13:06.552Z,5.11
2023-02-12T15:18:10.838Z,4.90
2023-02-12T15:23:38.538Z,4.72
2023-02-12T15:28:41.232Z,4.50
2023-02-12T15:33:47.928Z,4.31
2023-02-12T15:38:54.447Z,4.11
2023-02-12T15:43:57.015Z,3.92
2023-02-12T15:48:59.549Z,3.71
2023-02-12T15:54:05.894Z,3.54
2023-02-12T15:59:28.886Z,3.42
2023-02-12T16:04:34.114Z,3.30
2023-02-12T16:09:36.640Z,3.11
2023-02-12T16:14:46.465Z,2.86
2023-02-12T16:19:56.506Z,2.25
2023-02-12T16:24:58.740Z,2.35
2023-02-12T16:30:03.961Z,2.19
2023-02-12T16:35:12.063Z,2.08
2023-02-12T16:40:16.425Z,1.93
2023-02-12T16:45:27.436Z,1.82
2023-02-12T16:50:34.113Z,1.61
2023-02-12T16:55:36.779Z,1.39
2023-02-12T17:00:39.132Z,1.21
2023-02-12T17:05:44.900Z,1.12
2023-02-12T17:10:48.271Z,1.04
2023-02-12T17:15:55.437Z,0.91
2023-02-12T17:21:04.949Z,0.79
2023-02-12T17:26:07.743Z,0.70
2023-02-12T17:31:09.730Z,0.68
2023-02-12T17:36:12.328Z,0.74
2023-02-12T17:41:14.093Z,0.79
2023-02-12T17:46:22.872Z,0.76
2023-02-12T17:51:25.476Z,0.68
2023-02-12T17:56:27.460Z,0.36
2023-02-12T18:01:29.409Z,0.42
2023-02-12T18:06:31.828Z,0.36
2023-02-12T18:11:34.010Z,0.30
2023-02-12T18:16:35.748Z,0.18
2023-02-12T18:21:40.819Z,0.01
2023-02-12T18:26:42.573Z,-0.19
2023-02-12T18:31:45.750Z,-0.34
2023-02-12T18:36:47.533Z,-0.47
2023-02-12T18:41:49.302Z,-0.54
2023-02-12T18:46:51.499Z,-0.65
2023-02-12T18:51:53.555Z,-0.78
2023-02-12T18:56:56.254Z,-0.94
2023-02-12T19:01:58.220Z,-1.03
2023-02-12T19:07:00.206Z,-1.04
2023-02-12T19:12:03.298Z,-1.03
2023-02-12T19:17:05.098Z,-1.03
2023-02-12T19:22:06.770Z,-1.09
2023-02-12T19:27:09.832Z,-1.19
2023-02-12T19:32:11.522Z,-1.23
2023-02-12T19:37:13.824Z,-1.21
2023-02-12T19:42:17.261Z,-1.15
2023-02-12T19:47:18.886Z,-1.12
2023-02-12T19:52:20.552Z,-1.14
2023-02-12T19:57:22.365Z,-1.21
2023-02-12T20:02:25.194Z,-1.26
2023-02-12T20:07:26.842Z,-1.29
2023-02-12T20:12:28.719Z,-1.22
2023-02-12T20:17:30.484Z,-1.07
2023-02-12T20:22:32.248Z,-1.02
2023-02-12T20:27:34.098Z,-0.99
2023-02-12T20:32:35.953Z,-0.98
2023-02-12T20:37:37.811Z,-0.96
2023-02-12T20:42:39.560Z,-0.85
2023-02-12T20:47:42.856Z,-0.69
2023-02-12T20:52:44.578Z,-0.57
2023-02-12T20:57:46.450Z,-0.48
2023-02-12T21:02:48.116Z,-0.43
2023-02-12T21:07:50.481Z,-0.32
2023-02-12T21:12:52.247Z,-0.10
2023-02-12T21:17:53.908Z,0.09
2023-02-12T21:22:55.606Z,0.14
2023-02-12T21:27:57.265Z,0.19
2023-02-12T21:32:59.365Z,0.32
2023-02-12T21:38:01.003Z,0.50
2023-02-12T21:43:02.783Z,0.71
2023-02-12T21:48:04.629Z,0.88
2023-02-12T21:53:06.307Z,0.95
2023-02-12T21:58:08.388Z,1.01
2023-02-12T22:03:10.014Z,1.12
2023-02-12T22:08:11.976Z,1.23
2023-02-12T22:13:18.970Z,1.34
2023-02-12T22:18:20.692Z,1.35
2023-02-12T22:23:22.513Z,1.32
2023-02-12T22:28:24.490Z,1.15
2023-02-12T22:33:26.282Z,1.34
2023-02-12T22:38:27.953Z,1.38
2023-02-12T22:43:31.082Z,1.46
2023-02-12T22:48:32.788Z,1.46
2023-02-12T22:53:34.738Z,1.42
2023-02-12T22:58:38.613Z,1.39
2023-02-12T23:03:41.487Z,1.38
2023-02-12T23:08:44.258Z,1.41
2023-02-12T23:13:46.583Z,1.44
2023-02-12T23:18:48.836Z,1.42
2023-02-12T23:23:50.607Z,1.50
2023-02-12T23:28:52.224Z,1.58
2023-02-12T23:33:53.900Z,1.62
2023-02-12T23:38:59.222Z,1.67
2023-02-12T23:44:00.858Z,1.73
2023-02-12T23:49:02.803Z,1.80
2023-02-12T23:54:04.546Z,1.91
2023-02-12T23:59:06.449Z,2.01
